sensor_id;sensor_type;location;lat;lon;timestamp;P1;durP1;ratioP1;P2;durP2;ratioP2
65234;SDS011;51820;48.374;10.930;2022-07-23T00:02:11;14.00;;;7.37;;
65234;SDS011;51820;48.374;10.930;2022-07-23T00:04:40;14.50;;;7.05;;
65234;SDS011;51820;48.374;10.930;2022-07-23T00:07:09;13.55;;;6.55;;
65234;SDS011;51820;48.374;10.930;2022-07-23T00:09:37;12.48;;;6.75;;
65234;SDS011;51820;48.374;10.930;2022-07-23T00:12:06;12.82;;;6.63;;
65234;SDS011;51820;48.374;10.930;2022-07-23T00:14:34;12.80;;;6.90;;
65234;SDS011;51820;48.374;10.930;2022-07-23T00:17:02;14.00;;;6.90;;
65234;SDS011;51820;48.374;10.930;2022-07-23T00:19:30;18.85;;;7.30;;
65234;SDS011;51820;48.374;10.930;2022-07-23T00:21:59;14.35;;;6.93;;
65234;SDS011;51820;48.374;10.930;2022-07-23T00:24:28;11.43;;;6.78;;
65234;SDS011;51820;48.374;10.930;2022-07-23T00:26:56;9.17;;;6.13;;
65234;SDS011;51820;48.374;10.930;2022-07-23T00:29:27;12.52;;;6.13;;
65234;SDS011;51820;48.374;10.930;2022-07-23T00:31:56;9.43;;;5.88;;
65234;SDS011;51820;48.374;10.930;2022-07-23T00:34:24;12.02;;;6.00;;
65234;SDS011;51820;48.374;10.930;2022-07-23T00:36:52;10.85;;;5.40;;
65234;SDS011;51820;48.374;10.930;2022-07-23T00:39:21;8.40;;;5.13;;
65234;SDS011;51820;48.374;10.930;2022-07-23T00:41:51;8.30;;;5.22;;
65234;SDS011;51820;48.374;10.930;2022-07-23T00:44:21;13.77;;;5.28;;
65234;SDS011;51820;48.374;10.930;2022-07-23T00:46:52;11.35;;;5.10;;
65234;SDS011;51820;48.374;10.930;2022-07-23T00:49:22;8.63;;;4.85;;
65234;SDS011;51820;48.374;10.930;2022-07-23T00:51:52;12.43;;;5.13;;
65234;SDS011;51820;48.374;10.930;2022-07-23T00:54:21;8.48;;;5.03;;
65234;SDS011;51820;48.374;10.930;2022-07-23T00:56:52;10.48;;;5.03;;
65234;SDS011;51820;48.374;10.930;2022-07-23T00:59:21;13.07;;;4.80;;
65234;SDS011;51820;48.374;10.930;2022-07-23T01:01:49;8.10;;;4.78;;
65234;SDS011;51820;48.374;10.930;2022-07-23T01:04:17;10.70;;;4.80;;
65234;SDS011;51820;48.374;10.930;2022-07-23T01:06:48;8.48;;;4.82;;
65234;SDS011;51820;48.374;10.930;2022-07-23T01:09:16;8.40;;;4.65;;
65234;SDS011;51820;48.374;10.930;2022-07-23T01:11:45;9.82;;;4.97;;
65234;SDS011;51820;48.374;10.930;2022-07-23T01:14:16;11.80;;;5.50;;
65234;SDS011;51820;48.374;10.930;2022-07-23T01:16:46;13.77;;;5.33;;
65234;SDS011;51820;48.374;10.930;2022-07-23T01:19:16;11.70;;;5.53;;
65234;SDS011;51820;48.374;10.930;2022-07-23T01:21:46;9.93;;;5.65;;
65234;SDS011;51820;48.374;10.930;2022-07-23T01:24:17;12.55;;;5.93;;
65234;SDS011;51820;48.374;10.930;2022-07-23T01:26:59;11.75;;;6.07;;
65234;SDS011;51820;48.374;10.930;2022-07-23T01:29:28;12.20;;;6.50;;
65234;SDS011;51820;48.374;10.930;2022-07-23T01:32:00;14.10;;;6.45;;
65234;SDS011;51820;48.374;10.930;2022-07-23T01:34:28;12.77;;;6.60;;
65234;SDS011;51820;48.374;10.930;2022-07-23T01:36:56;20.60;;;8.52;;
65234;SDS011;51820;48.374;10.930;2022-07-23T01:39:26;16.10;;;8.63;;
65234;SDS011;51820;48.374;10.930;2022-07-23T01:41:57;12.47;;;7.00;;
65234;SDS011;51820;48.374;10.930;2022-07-23T01:44:26;13.77;;;7.18;;
65234;SDS011;51820;48.374;10.930;2022-07-23T01:46:55;13.85;;;6.30;;
65234;SDS011;51820;48.374;10.930;2022-07-23T01:49:23;12.50;;;7.00;;
65234;SDS011;51820;48.374;10.930;2022-07-23T01:52:10;14.75;;;6.35;;
65234;SDS011;51820;48.374;10.930;2022-07-23T01:54:46;16.93;;;6.97;;
65234;SDS011;51820;48.374;10.930;2022-07-23T01:57:15;13.02;;;7.25;;
65234;SDS011;51820;48.374;10.930;2022-07-23T01:59:44;14.18;;;6.18;;
65234;SDS011;51820;48.374;10.930;2022-07-23T02:02:12;12.18;;;6.55;;
65234;SDS011;51820;48.374;10.930;2022-07-23T02:04:41;12.00;;;6.45;;
65234;SDS011;51820;48.374;10.930;2022-07-23T02:07:09;12.30;;;6.73;;
65234;SDS011;51820;48.374;10.930;2022-07-23T02:09:37;11.45;;;6.70;;
65234;SDS011;51820;48.374;10.930;2022-07-23T02:12:07;11.20;;;6.38;;
65234;SDS011;51820;48.374;10.930;2022-07-23T02:14:36;11.82;;;7.30;;
65234;SDS011;51820;48.374;10.930;2022-07-23T02:17:04;12.43;;;6.57;;
65234;SDS011;51820;48.374;10.930;2022-07-23T02:19:34;13.77;;;6.80;;
65234;SDS011;51820;48.374;10.930;2022-07-23T02:22:02;13.32;;;7.28;;
65234;SDS011;51820;48.374;10.930;2022-07-23T02:24:30;12.98;;;7.00;;
65234;SDS011;51820;48.374;10.930;2022-07-23T02:26:59;12.45;;;6.80;;
65234;SDS011;51820;48.374;10.930;2022-07-23T02:29:29;10.85;;;6.05;;
65234;SDS011;51820;48.374;10.930;2022-07-23T02:31:57;9.67;;;6.20;;
65234;SDS011;51820;48.374;10.930;2022-07-23T02:34:25;12.52;;;6.70;;
65234;SDS011;51820;48.374;10.930;2022-07-23T02:36:54;13.77;;;6.68;;
65234;SDS011;51820;48.374;10.930;2022-07-23T02:39:25;11.98;;;6.25;;
65234;SDS011;51820;48.374;10.930;2022-07-23T02:41:53;12.02;;;6.38;;
65234;SDS011;51820;48.374;10.930;2022-07-23T02:44:23;12.10;;;6.60;;
65234;SDS011;51820;48.374;10.930;2022-07-23T02:46:54;12.27;;;6.20;;
65234;SDS011;51820;48.374;10.930;2022-07-23T02:49:22;13.52;;;6.05;;
65234;SDS011;51820;48.374;10.930;2022-07-23T02:51:51;14.10;;;6.93;;
65234;SDS011;51820;48.374;10.930;2022-07-23T02:54:19;10.40;;;6.93;;
65234;SDS011;51820;48.374;10.930;2022-07-23T02:56:48;14.20;;;7.23;;
65234;SDS011;51820;48.374;10.930;2022-07-23T02:59:17;13.98;;;6.50;;
65234;SDS011;51820;48.374;10.930;2022-07-23T03:01:47;11.13;;;6.05;;
65234;SDS011;51820;48.374;10.930;2022-07-23T03:04:18;12.15;;;6.18;;
65234;SDS011;51820;48.374;10.930;2022-07-23T03:06:46;13.32;;;6.05;;
65234;SDS011;51820;48.374;10.930;2022-07-23T03:09:15;11.43;;;6.57;;
65234;SDS011;51820;48.374;10.930;2022-07-23T03:11:43;12.93;;;6.72;;
65234;SDS011;51820;48.374;10.930;2022-07-23T03:14:12;11.30;;;6.32;;
65234;SDS011;51820;48.374;10.930;2022-07-23T03:16:42;12.88;;;6.85;;
65234;SDS011;51820;48.374;10.930;2022-07-23T03:19:10;11.25;;;7.28;;
65234;SDS011;51820;48.374;10.930;2022-07-23T03:21:41;12.83;;;7.03;;
65234;SDS011;51820;48.374;10.930;2022-07-23T03:24:11;11.23;;;6.55;;
65234;SDS011;51820;48.374;10.930;2022-07-23T03:26:39;12.23;;;7.10;;
65234;SDS011;51820;48.374;10.930;2022-07-23T03:29:07;11.07;;;6.00;;
65234;SDS011;51820;48.374;10.930;2022-07-23T03:31:36;13.07;;;7.10;;
65234;SDS011;51820;48.374;10.930;2022-07-23T03:34:04;13.47;;;7.03;;
65234;SDS011;51820;48.374;10.930;2022-07-23T03:36:32;10.23;;;6.35;;
65234;SDS011;51820;48.374;10.930;2022-07-23T03:39:03;9.18;;;6.00;;
65234;SDS011;51820;48.374;10.930;2022-07-23T03:41:38;13.30;;;6.32;;
65234;SDS011;51820;48.374;10.930;2022-07-23T03:44:06;10.68;;;5.90;;
65234;SDS011;51820;48.374;10.930;2022-07-23T03:49:32;12.45;;;5.68;;
65234;SDS011;51820;48.374;10.930;2022-07-23T03:52:04;9.90;;;5.40;;
65234;SDS011;51820;48.374;10.930;2022-07-23T03:54:34;9.13;;;5.78;;
65234;SDS011;51820;48.374;10.930;2022-07-23T03:57:02;13.38;;;5.90;;
65234;SDS011;51820;48.374;10.930;2022-07-23T03:59:32;10.67;;;5.50;;
65234;SDS011;51820;48.374;10.930;2022-07-23T04:02:03;9.55;;;5.55;;
65234;SDS011;51820;48.374;10.930;2022-07-23T04:04:31;9.35;;;5.15;;
65234;SDS011;51820;48.374;10.930;2022-07-23T04:07:00;9.75;;;5.68;;
65234;SDS011;51820;48.374;10.930;2022-07-23T04:09:30;10.85;;;6.10;;
65234;SDS011;51820;48.374;10.930;2022-07-23T04:11:59;21.27;;;5.50;;
65234;SDS011;51820;48.374;10.930;2022-07-23T04:14:28;17.05;;;5.95;;
65234;SDS011;51820;48.374;10.930;2022-07-23T04:16:57;9.65;;;5.47;;
65234;SDS011;51820;48.374;10.930;2022-07-23T04:19:25;11.00;;;5.13;;
65234;SDS011;51820;48.374;10.930;2022-07-23T04:22:04;9.50;;;4.97;;
65234;SDS011;51820;48.374;10.930;2022-07-23T04:24:39;9.23;;;5.00;;
65234;SDS011;51820;48.374;10.930;2022-07-23T04:27:10;9.18;;;4.88;;
65234;SDS011;51820;48.374;10.930;2022-07-23T04:29:39;10.43;;;4.60;;
65234;SDS011;51820;48.374;10.930;2022-07-23T04:32:07;9.65;;;4.65;;
65234;SDS011;51820;48.374;10.930;2022-07-23T04:34:36;8.73;;;4.60;;
65234;SDS011;51820;48.374;10.930;2022-07-23T04:37:05;9.53;;;4.47;;
65234;SDS011;51820;48.374;10.930;2022-07-23T04:39:34;9.98;;;4.43;;
65234;SDS011;51820;48.374;10.930;2022-07-23T04:42:03;9.48;;;4.57;;
65234;SDS011;51820;48.374;10.930;2022-07-23T04:47:40;9.60;;;4.45;;
65234;SDS011;51820;48.374;10.930;2022-07-23T04:50:11;8.33;;;4.23;;
65234;SDS011;51820;48.374;10.930;2022-07-23T04:52:43;9.80;;;4.53;;
65234;SDS011;51820;48.374;10.930;2022-07-23T04:55:12;9.25;;;5.07;;
65234;SDS011;51820;48.374;10.930;2022-07-23T04:57:40;8.15;;;4.40;;
65234;SDS011;51820;48.374;10.930;2022-07-23T05:00:08;12.30;;;4.72;;
65234;SDS011;51820;48.374;10.930;2022-07-23T05:02:37;10.67;;;4.30;;
65234;SDS011;51820;48.374;10.930;2022-07-23T05:05:07;8.30;;;5.03;;
65234;SDS011;51820;48.374;10.930;2022-07-23T05:07:35;8.80;;;4.75;;
65234;SDS011;51820;48.374;10.930;2022-07-23T05:10:04;9.00;;;4.45;;
65234;SDS011;51820;48.374;10.930;2022-07-23T05:12:32;8.77;;;4.53;;
65234;SDS011;51820;48.374;10.930;2022-07-23T05:15:00;9.53;;;4.60;;
65234;SDS011;51820;48.374;10.930;2022-07-23T05:17:30;8.57;;;4.25;;
65234;SDS011;51820;48.374;10.930;2022-07-23T05:20:00;8.20;;;4.57;;
65234;SDS011;51820;48.374;10.930;2022-07-23T05:22:30;9.63;;;4.70;;
65234;SDS011;51820;48.374;10.930;2022-07-23T05:24:59;17.00;;;5.47;;
65234;SDS011;51820;48.374;10.930;2022-07-23T05:27:27;8.43;;;4.63;;
65234;SDS011;51820;48.374;10.930;2022-07-23T05:29:56;10.32;;;5.03;;
65234;SDS011;51820;48.374;10.930;2022-07-23T05:32:24;10.75;;;4.82;;
65234;SDS011;51820;48.374;10.930;2022-07-23T05:35:03;9.45;;;4.25;;
65234;SDS011;51820;48.374;10.930;2022-07-23T05:37:36;11.02;;;4.05;;
65234;SDS011;51820;48.374;10.930;2022-07-23T05:40:05;8.53;;;4.20;;
65234;SDS011;51820;48.374;10.930;2022-07-23T05:42:36;10.70;;;4.63;;
65234;SDS011;51820;48.374;10.930;2022-07-23T05:45:05;9.63;;;4.63;;
65234;SDS011;51820;48.374;10.930;2022-07-23T05:47:39;9.88;;;4.72;;
65234;SDS011;51820;48.374;10.930;2022-07-23T05:50:09;10.88;;;4.38;;
65234;SDS011;51820;48.374;10.930;2022-07-23T05:52:46;11.30;;;4.67;;
65234;SDS011;51820;48.374;10.930;2022-07-23T05:55:32;8.63;;;4.55;;
65234;SDS011;51820;48.374;10.930;2022-07-23T05:58:00;8.13;;;4.38;;
65234;SDS011;51820;48.374;10.930;2022-07-23T06:00:30;10.30;;;4.95;;
65234;SDS011;51820;48.374;10.930;2022-07-23T06:02:58;8.88;;;4.70;;
65234;SDS011;51820;48.374;10.930;2022-07-23T06:05:28;10.23;;;4.77;;
65234;SDS011;51820;48.374;10.930;2022-07-23T06:07:58;9.63;;;4.70;;
65234;SDS011;51820;48.374;10.930;2022-07-23T06:10:28;10.02;;;4.20;;
65234;SDS011;51820;48.374;10.930;2022-07-23T06:12:56;9.45;;;4.60;;
65234;SDS011;51820;48.374;10.930;2022-07-23T06:15:28;12.10;;;4.95;;
65234;SDS011;51820;48.374;10.930;2022-07-23T06:17:57;10.27;;;4.93;;
65234;SDS011;51820;48.374;10.930;2022-07-23T06:20:25;9.48;;;5.28;;
65234;SDS011;51820;48.374;10.930;2022-07-23T06:22:57;10.00;;;4.93;;
65234;SDS011;51820;48.374;10.930;2022-07-23T06:25:28;9.20;;;5.10;;
65234;SDS011;51820;48.374;10.930;2022-07-23T06:27:56;11.55;;;5.57;;
65234;SDS011;51820;48.374;10.930;2022-07-23T06:30:26;11.10;;;5.33;;
65234;SDS011;51820;48.374;10.930;2022-07-23T06:32:55;9.13;;;5.35;;
65234;SDS011;51820;48.374;10.930;2022-07-23T06:35:23;9.95;;;5.20;;
65234;SDS011;51820;48.374;10.930;2022-07-23T06:37:51;12.10;;;5.47;;
65234;SDS011;51820;48.374;10.930;2022-07-23T06:40:22;9.57;;;5.70;;
65234;SDS011;51820;48.374;10.930;2022-07-23T06:42:50;9.57;;;5.67;;
65234;SDS011;51820;48.374;10.930;2022-07-23T06:45:21;10.25;;;5.63;;
65234;SDS011;51820;48.374;10.930;2022-07-23T06:47:51;9.52;;;5.10;;
65234;SDS011;51820;48.374;10.930;2022-07-23T06:50:20;13.45;;;5.88;;
65234;SDS011;51820;48.374;10.930;2022-07-23T06:52:48;8.48;;;5.30;;
65234;SDS011;51820;48.374;10.930;2022-07-23T06:55:16;9.13;;;5.63;;
65234;SDS011;51820;48.374;10.930;2022-07-23T06:57:46;11.15;;;6.43;;
65234;SDS011;51820;48.374;10.930;2022-07-23T07:00:15;9.85;;;5.80;;
65234;SDS011;51820;48.374;10.930;2022-07-23T07:02:44;9.88;;;5.40;;
65234;SDS011;51820;48.374;10.930;2022-07-23T07:05:12;10.40;;;5.65;;
65234;SDS011;51820;48.374;10.930;2022-07-23T07:07:40;10.80;;;5.90;;
65234;SDS011;51820;48.374;10.930;2022-07-23T07:10:08;12.52;;;5.55;;
65234;SDS011;51820;48.374;10.930;2022-07-23T07:12:41;10.23;;;5.55;;
65234;SDS011;51820;48.374;10.930;2022-07-23T07:15:11;9.85;;;5.78;;
65234;SDS011;51820;48.374;10.930;2022-07-23T07:17:39;12.40;;;6.10;;
65234;SDS011;51820;48.374;10.930;2022-07-23T07:20:09;12.97;;;7.00;;
65234;SDS011;51820;48.374;10.930;2022-07-23T07:22:37;11.00;;;6.10;;
65234;SDS011;51820;48.374;10.930;2022-07-23T07:25:06;12.18;;;6.03;;
65234;SDS011;51820;48.374;10.930;2022-07-23T07:27:35;9.98;;;5.80;;
65234;SDS011;51820;48.374;10.930;2022-07-23T07:30:03;12.57;;;5.75;;
65234;SDS011;51820;48.374;10.930;2022-07-23T07:32:34;11.27;;;6.10;;
65234;SDS011;51820;48.374;10.930;2022-07-23T07:35:22;11.45;;;5.55;;
65234;SDS011;51820;48.374;10.930;2022-07-23T07:37:51;9.20;;;5.82;;
65234;SDS011;51820;48.374;10.930;2022-07-23T07:40:19;11.77;;;5.97;;
65234;SDS011;51820;48.374;10.930;2022-07-23T07:42:49;12.52;;;5.53;;
65234;SDS011;51820;48.374;10.930;2022-07-23T07:45:19;9.70;;;5.60;;
65234;SDS011;51820;48.374;10.930;2022-07-23T07:47:49;12.25;;;6.03;;
65234;SDS011;51820;48.374;10.930;2022-07-23T07:50:19;12.80;;;6.10;;
65234;SDS011;51820;48.374;10.930;2022-07-23T07:52:48;9.98;;;5.95;;
65234;SDS011;51820;48.374;10.930;2022-07-23T07:55:16;10.45;;;5.70;;
65234;SDS011;51820;48.374;10.930;2022-07-23T07:57:45;11.33;;;6.20;;
65234;SDS011;51820;48.374;10.930;2022-07-23T08:00:15;10.82;;;6.30;;
65234;SDS011;51820;48.374;10.930;2022-07-23T08:02:45;10.52;;;6.10;;
65234;SDS011;51820;48.374;10.930;2022-07-23T08:05:19;12.60;;;7.10;;
65234;SDS011;51820;48.374;10.930;2022-07-23T08:07:53;13.45;;;6.25;;
65234;SDS011;51820;48.374;10.930;2022-07-23T08:10:23;13.93;;;6.10;;
65234;SDS011;51820;48.374;10.930;2022-07-23T08:12:52;9.35;;;5.85;;
65234;SDS011;51820;48.374;10.930;2022-07-23T08:15:23;12.90;;;5.88;;
65234;SDS011;51820;48.374;10.930;2022-07-23T08:17:52;10.30;;;5.82;;
65234;SDS011;51820;48.374;10.930;2022-07-23T08:20:22;11.20;;;5.95;;
65234;SDS011;51820;48.374;10.930;2022-07-23T08:22:54;12.47;;;5.90;;
65234;SDS011;51820;48.374;10.930;2022-07-23T08:25:24;10.82;;;5.57;;
65234;SDS011;51820;48.374;10.930;2022-07-23T08:27:54;8.93;;;5.50;;
65234;SDS011;51820;48.374;10.930;2022-07-23T08:30:22;16.13;;;6.07;;
65234;SDS011;51820;48.374;10.930;2022-07-23T08:32:52;10.45;;;6.00;;
65234;SDS011;51820;48.374;10.930;2022-07-23T08:35:24;9.70;;;5.83;;
65234;SDS011;51820;48.374;10.930;2022-07-23T08:37:54;11.48;;;6.07;;
65234;SDS011;51820;48.374;10.930;2022-07-23T08:40:22;10.77;;;5.90;;
65234;SDS011;51820;48.374;10.930;2022-07-23T08:42:56;11.55;;;6.47;;
65234;SDS011;51820;48.374;10.930;2022-07-23T08:45:25;10.20;;;5.30;;
65234;SDS011;51820;48.374;10.930;2022-07-23T08:47:55;9.43;;;5.40;;
65234;SDS011;51820;48.374;10.930;2022-07-23T08:50:29;8.80;;;5.53;;
65234;SDS011;51820;48.374;10.930;2022-07-23T08:52:58;12.27;;;6.00;;
65234;SDS011;51820;48.374;10.930;2022-07-23T08:55:27;12.48;;;5.30;;
65234;SDS011;51820;48.374;10.930;2022-07-23T08:57:56;8.50;;;4.68;;
65234;SDS011;51820;48.374;10.930;2022-07-23T09:00:24;8.43;;;4.57;;
65234;SDS011;51820;48.374;10.930;2022-07-23T09:02:52;9.88;;;4.90;;
65234;SDS011;51820;48.374;10.930;2022-07-23T09:05:21;11.10;;;5.20;;
65234;SDS011;51820;48.374;10.930;2022-07-23T09:10:44;9.63;;;4.97;;
65234;SDS011;51820;48.374;10.930;2022-07-23T09:13:30;9.73;;;5.00;;
65234;SDS011;51820;48.374;10.930;2022-07-23T09:16:01;9.32;;;4.90;;
65234;SDS011;51820;48.374;10.930;2022-07-23T09:18:32;9.00;;;4.82;;
65234;SDS011;51820;48.374;10.930;2022-07-23T09:21:09;8.82;;;4.85;;
65234;SDS011;51820;48.374;10.930;2022-07-23T09:23:52;9.35;;;4.97;;
65234;SDS011;51820;48.374;10.930;2022-07-23T09:26:23;7.60;;;4.47;;
65234;SDS011;51820;48.374;10.930;2022-07-23T09:28:58;9.00;;;5.15;;
65234;SDS011;51820;48.374;10.930;2022-07-23T09:31:33;8.70;;;4.90;;
65234;SDS011;51820;48.374;10.930;2022-07-23T09:34:09;8.52;;;5.05;;
65234;SDS011;51820;48.374;10.930;2022-07-23T09:36:44;8.13;;;4.70;;
65234;SDS011;51820;48.374;10.930;2022-07-23T09:39:29;8.00;;;4.70;;
65234;SDS011;51820;48.374;10.930;2022-07-23T09:42:22;8.90;;;4.63;;
65234;SDS011;51820;48.374;10.930;2022-07-23T09:45:08;8.43;;;4.32;;
65234;SDS011;51820;48.374;10.930;2022-07-23T09:47:41;8.95;;;4.93;;
65234;SDS011;51820;48.374;10.930;2022-07-23T09:51:08;10.57;;;4.57;;
65234;SDS011;51820;48.374;10.930;2022-07-23T09:53:46;9.07;;;5.00;;
65234;SDS011;51820;48.374;10.930;2022-07-23T09:56:26;8.35;;;4.78;;
65234;SDS011;51820;48.374;10.930;2022-07-23T09:59:00;9.82;;;5.20;;
65234;SDS011;51820;48.374;10.930;2022-07-23T10:01:39;9.45;;;4.90;;
65234;SDS011;51820;48.374;10.930;2022-07-23T10:04:07;8.90;;;5.13;;
65234;SDS011;51820;48.374;10.930;2022-07-23T10:06:57;10.37;;;5.83;;
65234;SDS011;51820;48.374;10.930;2022-07-23T10:10:06;9.95;;;5.10;;
65234;SDS011;51820;48.374;10.930;2022-07-23T10:12:59;9.27;;;5.50;;
65234;SDS011;51820;48.374;10.930;2022-07-23T10:15:51;12.77;;;5.40;;
65234;SDS011;51820;48.374;10.930;2022-07-23T10:18:20;9.50;;;5.55;;
65234;SDS011;51820;48.374;10.930;2022-07-23T10:20:50;10.27;;;5.50;;
65234;SDS011;51820;48.374;10.930;2022-07-23T10:23:20;10.30;;;5.07;;
65234;SDS011;51820;48.374;10.930;2022-07-23T10:25:55;8.60;;;4.78;;
65234;SDS011;51820;48.374;10.930;2022-07-23T10:28:47;8.68;;;5.03;;
65234;SDS011;51820;48.374;10.930;2022-07-23T10:31:38;9.98;;;5.15;;
65234;SDS011;51820;48.374;10.930;2022-07-23T10:34:36;10.93;;;4.83;;
65234;SDS011;51820;48.374;10.930;2022-07-23T10:37:21;8.15;;;4.97;;
65234;SDS011;51820;48.374;10.930;2022-07-23T10:40:21;11.77;;;6.00;;
65234;SDS011;51820;48.374;10.930;2022-07-23T10:43:02;8.13;;;4.75;;
65234;SDS011;51820;48.374;10.930;2022-07-23T10:45:49;9.40;;;5.22;;
65234;SDS011;51820;48.374;10.930;2022-07-23T10:48:19;8.57;;;4.60;;
65234;SDS011;51820;48.374;10.930;2022-07-23T10:57:05;8.52;;;5.22;;
65234;SDS011;51820;48.374;10.930;2022-07-23T11:05:58;9.13;;;4.93;;
65234;SDS011;51820;48.374;10.930;2022-07-23T11:08:32;8.25;;;4.97;;
65234;SDS011;51820;48.374;10.930;2022-07-23T11:11:13;8.50;;;4.97;;
65234;SDS011;51820;48.374;10.930;2022-07-23T11:13:51;9.48;;;4.63;;
65234;SDS011;51820;48.374;10.930;2022-07-23T11:16:31;9.33;;;5.07;;
65234;SDS011;51820;48.374;10.930;2022-07-23T11:19:14;10.48;;;6.32;;
65234;SDS011;51820;48.374;10.930;2022-07-23T11:21:44;11.02;;;6.07;;
65234;SDS011;51820;48.374;10.930;2022-07-23T11:24:18;9.43;;;5.57;;
65234;SDS011;51820;48.374;10.930;2022-07-23T11:26:52;10.50;;;5.10;;
65234;SDS011;51820;48.374;10.930;2022-07-23T11:29:37;10.40;;;5.30;;
65234;SDS011;51820;48.374;10.930;2022-07-23T11:32:23;8.23;;;5.47;;
65234;SDS011;51820;48.374;10.930;2022-07-23T11:35:24;9.95;;;5.35;;
65234;SDS011;51820;48.374;10.930;2022-07-23T11:38:02;9.60;;;5.18;;
65234;SDS011;51820;48.374;10.930;2022-07-23T11:40:34;9.45;;;5.15;;
65234;SDS011;51820;48.374;10.930;2022-07-23T11:43:04;9.10;;;5.00;;
65234;SDS011;51820;48.374;10.930;2022-07-23T11:45:35;9.40;;;5.63;;
65234;SDS011;51820;48.374;10.930;2022-07-23T11:51:37;9.10;;;5.40;;
65234;SDS011;51820;48.374;10.930;2022-07-23T11:54:13;8.82;;;5.40;;
65234;SDS011;51820;48.374;10.930;2022-07-23T11:58:22;9.30;;;5.37;;
65234;SDS011;51820;48.374;10.930;2022-07-23T12:01:38;9.98;;;5.57;;
65234;SDS011;51820;48.374;10.930;2022-07-23T12:04:23;10.20;;;5.50;;
65234;SDS011;51820;48.374;10.930;2022-07-23T12:06:52;9.90;;;5.50;;
65234;SDS011;51820;48.374;10.930;2022-07-23T12:09:22;10.80;;;6.15;;
65234;SDS011;51820;48.374;10.930;2022-07-23T12:11:56;8.87;;;5.20;;
65234;SDS011;51820;48.374;10.930;2022-07-23T12:14:25;12.73;;;6.70;;
65234;SDS011;51820;48.374;10.930;2022-07-23T12:17:06;9.60;;;6.03;;
65234;SDS011;51820;48.374;10.930;2022-07-23T12:19:35;11.40;;;7.10;;
65234;SDS011;51820;48.374;10.930;2022-07-23T12:22:03;10.88;;;5.65;;
65234;SDS011;51820;48.374;10.930;2022-07-23T12:27:29;11.20;;;6.90;;
65234;SDS011;51820;48.374;10.930;2022-07-23T12:29:59;8.75;;;5.78;;
65234;SDS011;51820;48.374;10.930;2022-07-23T12:32:44;12.60;;;6.28;;
65234;SDS011;51820;48.374;10.930;2022-07-23T12:35:13;9.65;;;5.60;;
65234;SDS011;51820;48.374;10.930;2022-07-23T12:37:44;10.63;;;6.00;;
65234;SDS011;51820;48.374;10.930;2022-07-23T12:40:30;10.27;;;6.22;;
65234;SDS011;51820;48.374;10.930;2022-07-23T12:43:23;10.80;;;5.95;;
65234;SDS011;51820;48.374;10.930;2022-07-23T12:45:56;11.25;;;6.35;;
65234;SDS011;51820;48.374;10.930;2022-07-23T12:48:29;10.25;;;6.22;;
65234;SDS011;51820;48.374;10.930;2022-07-23T12:51:01;12.87;;;6.60;;
65234;SDS011;51820;48.374;10.930;2022-07-23T12:53:31;10.38;;;6.72;;
65234;SDS011;51820;48.374;10.930;2022-07-23T12:56:03;9.90;;;6.13;;
65234;SDS011;51820;48.374;10.930;2022-07-23T12:58:45;10.15;;;6.07;;
65234;SDS011;51820;48.374;10.930;2022-07-23T13:01:24;10.48;;;6.75;;
65234;SDS011;51820;48.374;10.930;2022-07-23T13:03:55;11.60;;;6.40;;
65234;SDS011;51820;48.374;10.930;2022-07-23T13:06:25;11.45;;;6.90;;
65234;SDS011;51820;48.374;10.930;2022-07-23T13:08:54;10.57;;;6.63;;
65234;SDS011;51820;48.374;10.930;2022-07-23T13:11:24;11.82;;;6.40;;
65234;SDS011;51820;48.374;10.930;2022-07-23T13:13:52;9.13;;;6.05;;
65234;SDS011;51820;48.374;10.930;2022-07-23T13:16:21;10.30;;;6.53;;
65234;SDS011;51820;48.374;10.930;2022-07-23T13:18:52;10.48;;;6.47;;
65234;SDS011;51820;48.374;10.930;2022-07-23T13:21:20;12.95;;;8.70;;
65234;SDS011;51820;48.374;10.930;2022-07-23T13:23:49;11.30;;;6.95;;
65234;SDS011;51820;48.374;10.930;2022-07-23T13:26:17;11.32;;;6.90;;
65234;SDS011;51820;48.374;10.930;2022-07-23T13:28:47;11.67;;;6.67;;
65234;SDS011;51820;48.374;10.930;2022-07-23T13:31:16;12.88;;;7.28;;
65234;SDS011;51820;48.374;10.930;2022-07-23T13:33:45;10.60;;;7.10;;
65234;SDS011;51820;48.374;10.930;2022-07-23T13:36:15;10.70;;;7.05;;
65234;SDS011;51820;48.374;10.930;2022-07-23T13:38:43;12.15;;;6.75;;
65234;SDS011;51820;48.374;10.930;2022-07-23T13:41:11;10.80;;;6.30;;
65234;SDS011;51820;48.374;10.930;2022-07-23T13:43:39;12.07;;;6.75;;
65234;SDS011;51820;48.374;10.930;2022-07-23T13:46:09;12.05;;;7.03;;
65234;SDS011;51820;48.374;10.930;2022-07-23T13:48:37;10.88;;;7.18;;
65234;SDS011;51820;48.374;10.930;2022-07-23T13:51:07;11.20;;;7.28;;
65234;SDS011;51820;48.374;10.930;2022-07-23T13:53:36;14.10;;;7.17;;
65234;SDS011;51820;48.374;10.930;2022-07-23T13:56:06;12.60;;;6.90;;
65234;SDS011;51820;48.374;10.930;2022-07-23T13:58:34;11.43;;;6.90;;
65234;SDS011;51820;48.374;10.930;2022-07-23T14:01:02;11.45;;;6.95;;
65234;SDS011;51820;48.374;10.930;2022-07-23T14:03:32;11.57;;;6.78;;
65234;SDS011;51820;48.374;10.930;2022-07-23T14:06:00;10.70;;;6.93;;
65234;SDS011;51820;48.374;10.930;2022-07-23T14:09:03;8.95;;;6.80;;
65234;SDS011;51820;48.374;10.930;2022-07-23T14:11:34;12.73;;;7.32;;
65234;SDS011;51820;48.374;10.930;2022-07-23T14:14:02;10.50;;;6.80;;
65234;SDS011;51820;48.374;10.930;2022-07-23T14:16:30;10.52;;;6.78;;
65234;SDS011;51820;48.374;10.930;2022-07-23T14:19:00;12.57;;;6.63;;
65234;SDS011;51820;48.374;10.930;2022-07-23T14:21:30;11.65;;;6.80;;
65234;SDS011;51820;48.374;10.930;2022-07-23T14:23:59;9.75;;;6.43;;
65234;SDS011;51820;48.374;10.930;2022-07-23T14:26:27;10.90;;;6.40;;
65234;SDS011;51820;48.374;10.930;2022-07-23T14:28:55;11.32;;;6.60;;
65234;SDS011;51820;48.374;10.930;2022-07-23T14:31:23;11.73;;;6.00;;
65234;SDS011;51820;48.374;10.930;2022-07-23T14:33:52;11.18;;;7.20;;
65234;SDS011;51820;48.374;10.930;2022-07-23T14:36:21;11.23;;;6.97;;
65234;SDS011;51820;48.374;10.930;2022-07-23T14:38:51;12.30;;;6.63;;
65234;SDS011;51820;48.374;10.930;2022-07-23T14:41:19;13.05;;;6.47;;
65234;SDS011;51820;48.374;10.930;2022-07-23T14:43:53;9.40;;;5.80;;
65234;SDS011;51820;48.374;10.930;2022-07-23T14:46:22;9.75;;;5.88;;
65234;SDS011;51820;48.374;10.930;2022-07-23T14:48:50;9.88;;;6.20;;
65234;SDS011;51820;48.374;10.930;2022-07-23T14:51:19;8.70;;;5.88;;
65234;SDS011;51820;48.374;10.930;2022-07-23T14:53:49;7.57;;;5.00;;
65234;SDS011;51820;48.374;10.930;2022-07-23T14:56:18;8.60;;;5.60;;
65234;SDS011;51820;48.374;10.930;2022-07-23T14:58:47;8.90;;;5.18;;
65234;SDS011;51820;48.374;10.930;2022-07-23T15:01:16;7.95;;;5.13;;
65234;SDS011;51820;48.374;10.930;2022-07-23T15:03:45;9.27;;;5.93;;
65234;SDS011;51820;48.374;10.930;2022-07-23T15:06:13;8.75;;;5.15;;
65234;SDS011;51820;48.374;10.930;2022-07-23T15:08:46;9.47;;;5.50;;
65234;SDS011;51820;48.374;10.930;2022-07-23T15:11:20;10.20;;;5.78;;
65234;SDS011;51820;48.374;10.930;2022-07-23T15:13:50;12.02;;;5.70;;
65234;SDS011;51820;48.374;10.930;2022-07-23T15:16:19;11.93;;;5.85;;
65234;SDS011;51820;48.374;10.930;2022-07-23T15:18:50;9.40;;;5.97;;
65234;SDS011;51820;48.374;10.930;2022-07-23T15:21:21;10.27;;;5.93;;
65234;SDS011;51820;48.374;10.930;2022-07-23T15:23:55;10.13;;;5.82;;